Terminal Aerodrome Forecast
Issued by NWS

Home | Current Version | Previous Version | Graphics & Text | Print | Product List | Glossary On
Versions: 1 2 3 4 5 6 7 8 9 10 11 12 13 14 15 16 17 18 19 20 21 22 23 24 25 26 27 28 29 30 31 32 33 34 35 36
000
FTUS43 KLOT 300530
TAFORD
TAF
KORD 300530Z 3006/3112 22008KT P6SM VCSH BKN045
     FM301000 26006KT 5SM SHRA SCT020 OVC035
     FM301300 34007KT 3SM -RA BR BKN007 OVC015
     FM301500 02016G25KT 2SM RA BR OVC005
     FM301900 02018G28KT 3SM SHRA BR OVC007
     FM310000 02020G30KT 6SM -SHRA BKN007 OVC015
     FM310400 01018G28KT P6SM BKN015=

USA.gov is the U.S. government's official web portal to all federal, state and local government web resources and services.